createdAt,value
2022-10-21T00:01:18.121Z,4.15
2022-10-21T00:02:41.645Z,3.92
2022-10-21T00:04:05.718Z,4.57
2022-10-21T00:05:30.515Z,3.92
2022-10-21T00:06:54.740Z,3.60
2022-10-21T00:08:18.802Z,4.82
2022-10-21T00:09:42.715Z,3.92
2022-10-21T00:11:08.850Z,4.13
2022-10-21T00:12:31.716Z,4.03
2022-10-21T00:13:55.041Z,3.95
2022-10-21T00:15:18.576Z,4.22
2022-10-21T00:16:41.045Z,3.42
2022-10-21T00:18:04.712Z,4.30
2022-10-21T00:19:27.090Z,4.40
2022-10-21T00:20:50.408Z,4.55
2022-10-21T00:22:13.841Z,3.97
2022-10-21T00:23:37.555Z,4.47
2022-10-21T00:25:01.324Z,4.20
2022-10-21T00:26:24.796Z,4.28
2022-10-21T00:27:47.279Z,3.90
2022-10-21T00:29:10.688Z,3.85
2022-10-21T00:30:33.091Z,3.90
2022-10-21T00:31:56.719Z,3.88
2022-10-21T00:33:19.108Z,4.60
2022-10-21T00:34:43.331Z,4.38
2022-10-21T00:36:08.125Z,4.18
2022-10-21T00:37:30.947Z,4.68
2022-10-21T00:38:54.571Z,4.50
2022-10-21T00:40:19.999Z,3.58
2022-10-21T00:41:43.395Z,4.25
2022-10-21T00:43:05.766Z,3.85
2022-10-21T00:44:29.144Z,4.30
2022-10-21T00:45:54.390Z,4.25
2022-10-21T00:47:18.619Z,4.45
2022-10-21T00:48:44.059Z,4.60
2022-10-21T00:50:07.983Z,4.40
2022-10-21T00:51:32.325Z,4.53
2022-10-21T00:52:57.123Z,4.25
2022-10-21T00:54:22.715Z,4.00
2022-10-21T00:55:51.066Z,3.78
2022-10-21T00:57:14.683Z,4.30
2022-10-21T00:58:37.340Z,4.57
2022-10-21T01:00:03.361Z,4.38
2022-10-21T01:01:25.852Z,4.68
2022-10-21T01:02:49.265Z,4.10
2022-10-21T01:04:12.610Z,4.93
2022-10-21T01:05:37.580Z,4.40
2022-10-21T01:07:02.070Z,4.68
2022-10-21T01:08:24.830Z,4.53
2022-10-21T01:09:48.177Z,4.20
2022-10-21T01:11:14.767Z,3.72
2022-10-21T01:12:45.566Z,4.50
2022-10-21T01:14:30.970Z,4.72
2022-10-21T01:15:57.810Z,4.32
2022-10-21T01:17:45.881Z,4.40
2022-10-21T01:19:20.917Z,4.13
2022-10-21T01:21:10.524Z,4.18
2022-10-21T01:22:59.010Z,3.85
2022-10-21T01:24:43.708Z,3.90
2022-10-21T01:26:23.096Z,4.63
2022-10-21T01:27:53.405Z,4.85
2022-10-21T01:29:47.232Z,4.57
2022-10-21T01:31:16.796Z,4.03
2022-10-21T01:32:52.174Z,4.03
2022-10-21T01:34:19.068Z,4.05
2022-10-21T01:35:45.385Z,4.25
2022-10-21T01:37:13.314Z,4.03
2022-10-21T01:38:41.516Z,4.65
2022-10-21T01:40:08.192Z,4.30
2022-10-21T01:41:39.017Z,4.47
2022-10-21T01:43:08.384Z,4.88
2022-10-21T01:44:39.056Z,4.90
2022-10-21T01:46:05.404Z,4.38
2022-10-21T01:47:33.680Z,4.47
2022-10-21T01:48:59.340Z,4.35
2022-10-21T01:50:24.227Z,4.47
2022-10-21T01:51:48.374Z,4.32
2022-10-21T01:53:13.377Z,4.55
2022-10-21T01:54:38.990Z,4.57
2022-10-21T01:56:03.211Z,4.68
2022-10-21T01:57:30.699Z,4.65
2022-10-21T01:58:55.143Z,4.53
2022-10-21T02:00:17.957Z,4.60
2022-10-21T02:01:41.714Z,4.57
2022-10-21T02:03:07.839Z,4.30
2022-10-21T02:04:33.376Z,4.82
2022-10-21T02:05:56.890Z,5.20
2022-10-21T02:07:20.046Z,5.30
2022-10-21T02:08:43.570Z,4.85
2022-10-21T02:10:06.984Z,4.47
2022-10-21T02:11:30.485Z,5.22
2022-10-21T02:12:55.332Z,4.80
2022-10-21T02:14:21.279Z,4.53
2022-10-21T02:15:44.460Z,5.18
2022-10-21T02:17:08.879Z,4.13
2022-10-21T02:18:33.434Z,4.82
2022-10-21T02:20:00.385Z,4.55
2022-10-21T02:21:25.556Z,5.07
2022-10-21T02:22:49.543Z,4.32
2022-10-21T02:24:16.006Z,4.47
2022-10-21T02:25:40.950Z,4.03
2022-10-21T02:27:04.542Z,5.25
2022-10-21T02:28:26.975Z,4.40
2022-10-21T02:29:53.882Z,5.13
2022-10-21T02:31:28.965Z,4.43
2022-10-21T02:32:57.468Z,4.57
2022-10-21T02:34:31.281Z,4.32
2022-10-21T02:36:01.611Z,5.43
2022-10-21T02:37:31.496Z,5.15
2022-10-21T02:38:58.738Z,4.97
2022-10-21T02:40:25.200Z,5.18
2022-10-21T02:41:48.924Z,4.90
2022-10-21T02:43:15.293Z,4.90
2022-10-21T02:44:37.711Z,4.55
2022-10-21T02:46:07.405Z,4.40
2022-10-21T02:47:31.132Z,5.28
2022-10-21T02:48:55.150Z,4.90
2022-10-21T02:50:20.049Z,4.88
2022-10-21T02:51:43.092Z,4.95
2022-10-21T02:53:08.914Z,5.03
2022-10-21T02:54:32.279Z,4.38
2022-10-21T02:55:54.673Z,5.18
2022-10-21T02:57:18.022Z,5.28
2022-10-21T02:58:41.407Z,5.22
2022-10-21T03:00:05.323Z,4.18
2022-10-21T03:01:28.921Z,5.68
2022-10-21T03:02:51.420Z,4.82
2022-10-21T03:04:14.765Z,5.60
2022-10-21T03:05:38.549Z,4.50
2022-10-21T03:07:01.875Z,5.32
2022-10-21T03:08:24.271Z,4.88
2022-10-21T03:09:47.848Z,4.65
2022-10-21T03:11:11.192Z,4.63
2022-10-21T03:12:34.570Z,5.63
2022-10-21T03:13:57.936Z,4.82
2022-10-21T03:15:20.325Z,4.35
2022-10-21T03:16:43.688Z,4.35
2022-10-21T03:18:06.085Z,5.93
2022-10-21T03:19:29.414Z,5.07
2022-10-21T03:20:54.202Z,4.93
2022-10-21T03:22:17.556Z,4.50
2022-10-21T03:23:40.903Z,4.75
2022-10-21T03:25:03.477Z,4.03
2022-10-21T03:26:27.633Z,5.40
2022-10-21T03:29:29.051Z,4.57
2022-10-21T03:30:51.395Z,5.32
2022-10-21T03:32:15.580Z,6.13
2022-10-21T03:33:38.961Z,5.40
2022-10-21T03:35:02.389Z,5.05
2022-10-21T03:36:27.130Z,5.25
2022-10-21T03:37:50.536Z,5.25
2022-10-21T03:39:13.245Z,4.70
2022-10-21T03:40:36.625Z,5.40
2022-10-21T03:41:58.991Z,5.40
2022-10-21T03:43:22.391Z,5.18
2022-10-21T03:44:45.766Z,5.72
2022-10-21T03:46:09.175Z,5.43
2022-10-21T03:47:32.539Z,5.57
2022-10-21T03:49:00.926Z,4.85
2022-10-21T03:50:27.904Z,4.47
2022-10-21T03:51:51.635Z,5.60
2022-10-21T03:53:30.949Z,4.97
2022-10-21T03:54:58.352Z,5.43
2022-10-21T03:56:21.671Z,5.30
2022-10-21T03:57:45.007Z,5.68
2022-10-21T03:59:08.463Z,5.10
2022-10-21T04:00:33.297Z,5.18
2022-10-21T04:01:56.752Z,5.72
2022-10-21T04:03:20.255Z,5.85
2022-10-21T04:04:43.635Z,5.63
2022-10-21T04:06:06.349Z,5.13
2022-10-21T04:07:31.173Z,5.45
2022-10-21T04:08:54.703Z,4.95
2022-10-21T04:10:17.210Z,5.75
2022-10-21T04:11:40.547Z,5.15
2022-10-21T04:13:03.927Z,4.85
2022-10-21T04:14:27.409Z,5.72
2022-10-21T04:15:49.830Z,5.07
2022-10-21T04:17:13.203Z,5.43
2022-10-21T04:18:36.540Z,5.72
2022-10-21T04:19:59.955Z,5.10
2022-10-21T04:22:53.071Z,6.10
2022-10-21T04:24:15.494Z,5.80
2022-10-21T04:25:38.824Z,5.88
2022-10-21T04:27:02.286Z,5.25
2022-10-21T04:28:24.759Z,5.78
2022-10-21T04:29:48.108Z,5.18
2022-10-21T04:31:12.217Z,6.35
2022-10-21T04:32:34.598Z,5.88
2022-10-21T04:33:58.382Z,5.18
2022-10-21T04:35:21.718Z,5.80
2022-10-21T04:36:44.111Z,5.05
2022-10-21T04:38:09.007Z,5.32
2022-10-21T04:39:31.439Z,5.95
2022-10-21T04:40:58.630Z,5.65
2022-10-21T04:42:21.992Z,5.47
2022-10-21T04:43:44.421Z,5.90
2022-10-21T04:45:08.882Z,5.50
2022-10-21T04:46:31.266Z,6.57
2022-10-21T04:47:54.656Z,5.50
2022-10-21T04:49:17.078Z,6.20
2022-10-21T04:50:40.515Z,5.53
2022-10-21T04:52:03.957Z,6.28
2022-10-21T04:53:28.683Z,6.00
2022-10-21T04:54:52.076Z,5.53
2022-10-21T04:56:15.440Z,6.60
2022-10-21T04:57:40.071Z,6.20
2022-10-21T04:59:03.440Z,6.32
2022-10-21T05:00:26.770Z,5.28
2022-10-21T05:01:50.181Z,5.45
2022-10-21T05:03:13.570Z,6.32
2022-10-21T05:04:36.983Z,5.80
2022-10-21T05:06:00.439Z,6.60
2022-10-21T05:07:22.917Z,5.82
2022-10-21T05:08:47.886Z,6.07
2022-10-21T05:10:11.540Z,5.72
2022-10-21T05:11:35.107Z,6.63
2022-10-21T05:12:58.555Z,6.63
2022-10-21T05:14:22.934Z,6.43
2022-10-21T05:15:46.403Z,6.47
2022-10-21T05:17:09.756Z,5.43
2022-10-21T05:18:33.447Z,6.70
2022-10-21T05:19:56.787Z,6.05
2022-10-21T05:21:20.175Z,6.40
2022-10-21T05:22:43.565Z,7.15
2022-10-21T05:24:08.509Z,6.30
2022-10-21T05:25:34.228Z,5.72
2022-10-21T05:26:57.955Z,5.72
2022-10-21T05:28:21.703Z,6.55
2022-10-21T05:29:45.029Z,6.15
2022-10-21T05:31:08.939Z,5.55
2022-10-21T05:32:31.462Z,6.22
2022-10-21T05:33:54.799Z,6.15
2022-10-21T05:35:18.075Z,6.32
2022-10-21T05:36:41.408Z,6.63
2022-10-21T05:38:04.455Z,5.53
2022-10-21T05:39:29.486Z,6.43
2022-10-21T05:40:52.092Z,5.97
2022-10-21T05:42:15.509Z,6.03
2022-10-21T05:43:39.159Z,5.93
2022-10-21T05:45:02.649Z,6.28
2022-10-21T05:46:27.017Z,7.03
2022-10-21T05:47:50.394Z,6.15
2022-10-21T05:49:13.837Z,5.50
2022-10-21T05:50:37.179Z,6.63
2022-10-21T05:52:02.088Z,5.60
2022-10-21T05:53:25.070Z,6.07
2022-10-21T05:54:49.759Z,5.85
2022-10-21T05:56:13.202Z,5.72
2022-10-21T05:57:37.317Z,6.15
2022-10-21T05:59:00.729Z,6.30
2022-10-21T06:00:24.195Z,6.05
2022-10-21T06:01:47.539Z,5.80
2022-10-21T06:03:10.886Z,6.05
2022-10-21T06:04:37.911Z,6.50
2022-10-21T06:06:03.830Z,5.47
2022-10-21T06:07:27.223Z,6.55
2022-10-21T06:08:50.708Z,5.88
2022-10-21T06:10:16.555Z,6.03
2022-10-21T06:11:39.894Z,6.13
2022-10-21T06:13:03.222Z,5.65
2022-10-21T06:14:26.953Z,5.40
2022-10-21T06:15:51.113Z,5.97
2022-10-21T06:17:14.597Z,6.78
2022-10-21T06:18:37.255Z,6.53
2022-10-21T06:20:01.667Z,5.55
2022-10-21T06:21:25.029Z,6.30
2022-10-21T06:22:48.352Z,7.25
2022-10-21T06:24:11.733Z,7.05
2022-10-21T06:25:36.481Z,6.47
2022-10-21T06:26:59.875Z,5.32
2022-10-21T06:28:23.393Z,6.50
2022-10-21T06:29:46.809Z,6.57
2022-10-21T06:31:13.975Z,6.28
2022-10-21T06:32:37.356Z,6.35
2022-10-21T06:34:00.709Z,6.82
2022-10-21T06:35:24.117Z,6.55
2022-10-21T06:36:47.867Z,6.05
2022-10-21T06:38:11.205Z,5.13
2022-10-21T06:39:34.539Z,6.22
2022-10-21T06:41:09.086Z,5.50
2022-10-21T06:42:35.624Z,6.25
2022-10-21T06:43:59.058Z,6.40
2022-10-21T06:45:22.424Z,6.47
2022-10-21T06:46:45.796Z,5.85
2022-10-21T06:48:09.270Z,6.30
2022-10-21T06:49:32.629Z,6.45
2022-10-21T06:50:59.136Z,6.20
2022-10-21T06:52:22.607Z,7.35
2022-10-21T06:53:46.635Z,6.60
2022-10-21T06:55:10.322Z,6.47
2022-10-21T06:56:35.143Z,5.80
2022-10-21T06:57:59.192Z,5.60
2022-10-21T06:59:22.810Z,6.97
2022-10-21T07:00:45.220Z,6.55
2022-10-21T07:02:10.107Z,6.18
2022-10-21T07:03:33.548Z,5.78
2022-10-21T07:04:57.974Z,5.70
2022-10-21T07:06:21.653Z,5.70
2022-10-21T07:07:45.166Z,5.93
2022-10-21T07:09:10.381Z,6.55
2022-10-21T07:10:34.198Z,5.75
2022-10-21T07:11:58.961Z,6.68
2022-10-21T07:13:25.851Z,6.57
2022-10-21T07:14:50.005Z,6.22
2022-10-21T07:16:18.836Z,6.80
2022-10-21T07:17:42.315Z,6.45
2022-10-21T07:19:06.054Z,6.95
2022-10-21T07:20:29.420Z,6.35
2022-10-21T07:21:53.009Z,7.00
2022-10-21T07:23:16.361Z,6.35
2022-10-21T07:24:39.690Z,5.20
2022-10-21T07:26:04.681Z,7.00
2022-10-21T07:27:29.485Z,6.53
2022-10-21T07:28:53.289Z,6.82
2022-10-21T07:30:16.804Z,6.90
2022-10-21T07:31:40.515Z,6.00
2022-10-21T07:33:02.891Z,7.07
2022-10-21T07:34:26.883Z,6.18
2022-10-21T07:35:50.304Z,6.05
2022-10-21T07:37:13.639Z,6.65
2022-10-21T07:38:37.179Z,6.70
2022-10-21T07:40:00.536Z,6.72
2022-10-21T07:41:26.108Z,7.18
2022-10-21T07:42:50.770Z,6.20
2022-10-21T07:44:14.476Z,6.82
2022-10-21T07:45:41.199Z,6.60
2022-10-21T07:47:04.567Z,6.85
2022-10-21T07:48:28.149Z,6.97
2022-10-21T07:49:51.559Z,6.70
2022-10-21T07:51:17.028Z,5.38
2022-10-21T07:52:51.921Z,6.93
2022-10-21T07:54:24.115Z,7.53
2022-10-21T07:55:47.581Z,6.30
2022-10-21T07:57:11.302Z,6.35
2022-10-21T07:58:36.364Z,6.18
2022-10-21T07:59:59.722Z,6.65
2022-10-21T08:01:22.728Z,6.38
2022-10-21T08:02:46.137Z,5.35
2022-10-21T08:04:10.586Z,6.10
2022-10-21T08:05:33.965Z,6.35
2022-10-21T08:06:57.965Z,6.53
2022-10-21T08:08:21.685Z,5.80
2022-10-21T08:09:45.056Z,7.15
2022-10-21T08:11:09.818Z,6.43
2022-10-21T08:12:33.375Z,7.03
2022-10-21T08:13:58.492Z,6.68
2022-10-21T08:15:21.824Z,7.10
2022-10-21T08:16:45.280Z,7.22
2022-10-21T08:18:08.733Z,6.38
2022-10-21T08:19:32.194Z,7.32
2022-10-21T08:20:56.003Z,6.07
2022-10-21T08:22:19.692Z,5.78
2022-10-21T08:23:43.107Z,6.60
2022-10-21T08:25:07.348Z,6.55
2022-10-21T08:26:30.879Z,5.38
2022-10-21T08:27:54.252Z,5.65
2022-10-21T08:29:19.002Z,5.57
2022-10-21T08:30:42.489Z,6.03
2022-10-21T08:32:06.147Z,6.65
2022-10-21T08:33:30.093Z,6.40
2022-10-21T08:34:53.496Z,6.10
2022-10-21T08:36:18.729Z,5.68
2022-10-21T08:37:42.075Z,6.57
2022-10-21T08:39:05.889Z,6.80
2022-10-21T08:40:33.020Z,6.32
2022-10-21T08:42:12.420Z,5.55
2022-10-21T08:43:36.872Z,6.40
2022-10-21T08:45:07.039Z,6.00
2022-10-21T08:46:36.039Z,6.07
2022-10-21T08:48:02.584Z,6.60
2022-10-21T08:49:29.986Z,7.00
2022-10-21T08:50:56.445Z,6.00
2022-10-21T08:52:22.692Z,6.05
2022-10-21T08:53:48.720Z,6.35
2022-10-21T08:55:18.816Z,6.13
2022-10-21T08:56:42.453Z,5.97
2022-10-21T08:58:06.207Z,7.00
2022-10-21T08:59:29.574Z,6.30
2022-10-21T09:00:57.349Z,6.60
2022-10-21T09:02:30.419Z,5.97
2022-10-21T09:03:58.064Z,6.60
2022-10-21T09:05:45.893Z,6.18
2022-10-21T09:07:16.264Z,7.10
2022-10-21T09:08:44.267Z,6.50
2022-10-21T09:10:16.099Z,7.10
2022-10-21T09:11:52.371Z,6.90
2022-10-21T09:13:20.902Z,5.97
2022-10-21T09:15:11.785Z,6.18
2022-10-21T09:16:44.340Z,6.00
2022-10-21T09:18:19.288Z,6.53
2022-10-21T09:19:48.066Z,6.13
2022-10-21T09:21:16.011Z,6.32
2022-10-21T09:22:46.969Z,6.35
2022-10-21T09:24:12.969Z,6.70
2022-10-21T09:25:43.976Z,6.18
2022-10-21T09:27:08.699Z,6.32
2022-10-21T09:28:32.820Z,6.15
2022-10-21T09:29:58.929Z,5.53
2022-10-21T09:31:23.166Z,6.00
2022-10-21T09:32:49.854Z,6.00
2022-10-21T09:34:19.677Z,7.13
2022-10-21T09:35:48.074Z,6.05
2022-10-21T09:37:18.707Z,5.85
2022-10-21T09:38:46.430Z,5.95
2022-10-21T09:40:16.300Z,6.50
2022-10-21T09:41:44.102Z,6.00
2022-10-21T09:43:07.747Z,6.38
2022-10-21T09:44:31.187Z,6.85
2022-10-21T09:45:56.572Z,5.72
2022-10-21T09:47:21.831Z,5.65
2022-10-21T09:50:34.270Z,6.03
2022-10-21T09:52:01.021Z,6.22
2022-10-21T09:53:27.419Z,6.68
2022-10-21T09:54:51.016Z,6.50
2022-10-21T09:56:17.447Z,5.55
2022-10-21T09:57:48.156Z,6.07
2022-10-21T09:59:12.711Z,6.20
2022-10-21T10:00:45.345Z,5.97
2022-10-21T10:02:09.687Z,6.35
2022-10-21T10:03:34.600Z,5.90
2022-10-21T10:04:59.609Z,6.25
2022-10-21T10:06:37.545Z,6.30
2022-10-21T10:08:01.146Z,6.20
2022-10-21T10:09:29.228Z,5.80
2022-10-21T10:10:51.725Z,5.68
2022-10-21T10:12:16.695Z,6.53
2022-10-21T10:13:40.959Z,6.00
2022-10-21T10:15:29.314Z,5.75
2022-10-21T10:16:54.882Z,6.22
2022-10-21T10:18:22.913Z,6.57
2022-10-21T10:20:18.164Z,6.00
2022-10-21T10:21:41.549Z,6.10
2022-10-21T10:23:19.350Z,6.25
2022-10-21T10:24:43.308Z,5.90
2022-10-21T10:26:06.820Z,5.13
2022-10-21T10:27:30.200Z,5.60
2022-10-21T10:28:56.446Z,5.47
2022-10-21T10:30:20.777Z,5.63
2022-10-21T10:31:50.549Z,6.10
2022-10-21T10:33:17.872Z,6.72
2022-10-21T10:34:52.849Z,6.10
2022-10-21T10:36:27.996Z,5.70
2022-10-21T10:37:52.012Z,6.05
2022-10-21T10:39:20.497Z,5.93
2022-10-21T10:40:45.555Z,6.72
2022-10-21T10:42:09.347Z,5.85
2022-10-21T10:43:34.324Z,6.53
2022-10-21T10:44:59.775Z,5.78
2022-10-21T10:46:26.158Z,5.57
2022-10-21T10:47:51.247Z,6.70
2022-10-21T10:49:22.664Z,5.57
2022-10-21T10:50:47.988Z,6.20
2022-10-21T10:52:24.098Z,6.63
2022-10-21T10:53:47.448Z,6.10
2022-10-21T10:55:19.613Z,5.43
2022-10-21T10:56:45.996Z,6.05
2022-10-21T10:58:12.719Z,5.95
2022-10-21T10:59:43.574Z,5.88
2022-10-21T11:01:13.021Z,6.07
2022-10-21T11:02:39.458Z,6.30
2022-10-21T11:04:11.308Z,6.45
2022-10-21T11:05:37.873Z,6.35
2022-10-21T11:07:05.441Z,6.22
2022-10-21T11:08:34.493Z,7.05
2022-10-21T11:10:03.246Z,6.68
2022-10-21T11:11:28.075Z,6.40
2022-10-21T11:12:51.472Z,6.57
2022-10-21T11:14:18.874Z,6.97
2022-10-21T11:16:02.136Z,6.13
2022-10-21T11:17:30.645Z,7.93
2022-10-21T11:19:00.268Z,6.82
2022-10-21T11:20:28.098Z,6.10
2022-10-21T11:21:54.762Z,7.03
2022-10-21T11:23:35.916Z,6.40
2022-10-21T11:25:05.398Z,6.20
2022-10-21T11:26:34.216Z,6.00
2022-10-21T11:28:08.435Z,6.05
2022-10-21T11:29:39.397Z,6.32
2022-10-21T11:31:09.647Z,6.45
2022-10-21T11:32:46.572Z,6.60
2022-10-21T11:34:15.605Z,6.13
2022-10-21T11:35:48.035Z,5.72
2022-10-21T11:37:20.124Z,5.93
2022-10-21T11:39:21.349Z,6.25
2022-10-21T11:40:50.717Z,6.38
2022-10-21T11:42:23.360Z,5.72
2022-10-21T11:43:52.738Z,5.93
2022-10-21T11:45:30.185Z,6.07
2022-10-21T11:47:02.251Z,5.93
2022-10-21T11:48:34.017Z,6.22
2022-10-21T11:50:04.500Z,6.75
2022-10-21T11:51:35.179Z,6.60
2022-10-21T11:53:12.589Z,6.20
2022-10-21T11:55:09.553Z,5.78
2022-10-21T11:56:39.904Z,6.68
2022-10-21T11:58:13.061Z,6.60
2022-10-21T11:59:50.173Z,6.70
2022-10-21T12:01:29.425Z,6.68
2022-10-21T12:03:14.694Z,7.25
2022-10-21T12:04:43.550Z,6.53
2022-10-21T12:06:14.130Z,7.63
2022-10-21T12:08:10.363Z,7.35
2022-10-21T12:09:38.380Z,7.22
2022-10-21T12:11:05.675Z,6.45
2022-10-21T12:12:32.703Z,6.82
2022-10-21T12:13:58.723Z,6.65
2022-10-21T12:15:26.499Z,6.50
2022-10-21T12:16:50.210Z,6.40
2022-10-21T12:18:16.839Z,6.28
2022-10-21T12:19:40.279Z,7.00
2022-10-21T12:21:03.893Z,6.38
2022-10-21T12:22:29.154Z,6.90
2022-10-21T12:23:55.071Z,6.30
2022-10-21T12:25:28.688Z,7.53
2022-10-21T12:26:57.352Z,7.25
2022-10-21T12:28:25.341Z,7.55
2022-10-21T12:30:03.818Z,6.32
2022-10-21T12:31:36.668Z,7.20
2022-10-21T12:33:13.659Z,6.28
2022-10-21T12:34:37.244Z,6.63
2022-10-21T12:36:17.531Z,5.95
2022-10-21T12:37:46.705Z,5.95
2022-10-21T12:39:13.706Z,6.32
2022-10-21T12:40:40.045Z,5.82
2022-10-21T12:42:11.795Z,6.68
2022-10-21T12:43:35.264Z,5.78
2022-10-21T12:44:58.669Z,5.80
2022-10-21T12:46:24.864Z,6.63
2022-10-21T12:47:48.512Z,5.28
2022-10-21T12:49:24.295Z,5.57
2022-10-21T12:50:57.988Z,5.50
2022-10-21T12:52:23.995Z,5.10
2022-10-21T12:55:23.092Z,5.32
2022-10-21T12:56:50.654Z,4.82
2022-10-21T12:58:22.944Z,5.30
2022-10-21T12:59:48.932Z,5.25
2022-10-21T13:01:42.104Z,5.72
2022-10-21T13:03:07.976Z,5.65
2022-10-21T13:04:58.803Z,5.55
2022-10-21T13:06:50.757Z,5.70
2022-10-21T13:08:29.298Z,5.47
2022-10-21T13:10:17.551Z,5.85
2022-10-21T13:11:41.778Z,5.95
2022-10-21T13:13:41.226Z,5.93
2022-10-21T13:15:45.678Z,5.53
2022-10-21T13:17:47.073Z,5.78
2022-10-21T13:19:34.854Z,5.30
2022-10-21T13:21:00.486Z,6.13
2022-10-21T13:22:32.596Z,5.07
2022-10-21T13:23:56.719Z,4.80
2022-10-21T13:25:23.404Z,5.90
2022-10-21T13:26:53.939Z,5.50
2022-10-21T13:28:22.093Z,4.95
2022-10-21T13:29:48.405Z,4.80
2022-10-21T13:31:22.150Z,5.38
2022-10-21T13:32:46.306Z,5.03
2022-10-21T13:34:27.561Z,4.65
2022-10-21T13:35:53.276Z,5.72
2022-10-21T13:37:22.220Z,5.72
2022-10-21T13:38:50.320Z,5.18
2022-10-21T13:40:17.188Z,5.75
2022-10-21T13:41:40.556Z,5.55
2022-10-21T13:43:07.607Z,5.28
2022-10-21T13:44:34.476Z,5.55
2022-10-21T13:46:05.050Z,5.38
2022-10-21T13:47:32.706Z,5.20
2022-10-21T13:48:59.640Z,5.30
2022-10-21T13:50:28.300Z,4.90
2022-10-21T13:51:53.873Z,5.10
2022-10-21T13:53:27.066Z,5.57
2022-10-21T13:54:59.754Z,5.40
2022-10-21T13:56:24.547Z,5.53
2022-10-21T13:57:50.040Z,4.90
2022-10-21T13:59:23.521Z,5.90
2022-10-21T14:00:47.045Z,5.35
2022-10-21T14:02:24.600Z,4.75
2022-10-21T14:03:50.189Z,4.53
2022-10-21T14:05:29.728Z,6.07
2022-10-21T14:06:54.768Z,5.30
2022-10-21T14:08:23.750Z,5.53
2022-10-21T14:09:48.442Z,5.18
2022-10-21T14:11:16.203Z,5.95
2022-10-21T14:12:44.280Z,5.63
2022-10-21T14:14:09.607Z,6.15
2022-10-21T14:15:39.407Z,6.00
2022-10-21T14:17:04.626Z,5.55
2022-10-21T14:18:33.659Z,5.20
2022-10-21T14:20:07.239Z,5.63
2022-10-21T14:21:32.908Z,5.25
2022-10-21T14:22:56.480Z,6.20
2022-10-21T14:24:28.445Z,5.63
2022-10-21T14:25:53.715Z,5.32
2022-10-21T14:27:19.757Z,6.25
2022-10-21T14:28:43.956Z,5.57
2022-10-21T14:30:10.097Z,5.63
2022-10-21T14:31:33.565Z,6.00
2022-10-21T14:32:58.497Z,5.95
2022-10-21T14:34:25.813Z,6.13
2022-10-21T14:36:10.126Z,5.25
2022-10-21T14:37:36.948Z,5.93
2022-10-21T14:39:03.134Z,5.85
2022-10-21T14:40:31.823Z,5.75
2022-10-21T14:41:59.293Z,5.90
2022-10-21T14:43:26.277Z,5.72
2022-10-21T14:44:51.487Z,5.65
2022-10-21T14:46:14.959Z,6.10
2022-10-21T14:47:38.344Z,5.50
2022-10-21T14:49:03.419Z,5.70
2022-10-21T14:50:26.002Z,5.60
2022-10-21T14:51:51.207Z,6.13
2022-10-21T14:53:19.258Z,6.30
2022-10-21T14:54:45.296Z,5.82
2022-10-21T14:56:15.334Z,5.57
2022-10-21T14:57:45.559Z,5.30
2022-10-21T14:59:21.787Z,5.82
2022-10-21T15:00:45.149Z,6.20
2022-10-21T15:02:18.935Z,6.18
2022-10-21T15:03:44.153Z,6.10
2022-10-21T15:05:29.061Z,6.10
2022-10-21T15:07:02.770Z,5.80
2022-10-21T15:08:32.791Z,5.72
2022-10-21T15:10:07.246Z,5.50
2022-10-21T15:11:40.184Z,5.97
2022-10-21T15:13:04.613Z,6.53
2022-10-21T15:14:31.956Z,6.40
2022-10-21T15:15:57.367Z,5.50
2022-10-21T15:17:20.815Z,6.28
2022-10-21T15:18:47.438Z,6.30
2022-10-21T15:20:17.291Z,6.10
2022-10-21T15:21:48.116Z,5.82
2022-10-21T15:23:20.211Z,6.70
2022-10-21T15:24:46.151Z,6.57
2022-10-21T15:26:17.013Z,6.28
2022-10-21T15:27:42.684Z,6.18
2022-10-21T15:29:13.919Z,6.93
2022-10-21T15:30:37.338Z,5.97
2022-10-21T15:32:01.168Z,6.47
2022-10-21T15:33:24.896Z,6.32
2022-10-21T15:34:51.588Z,6.45
2022-10-21T15:36:16.058Z,6.13
2022-10-21T15:37:39.641Z,6.68
2022-10-21T15:39:06.878Z,5.82
2022-10-21T15:40:34.155Z,6.43
2022-10-21T15:41:58.898Z,5.70
2022-10-21T15:43:21.348Z,6.32
2022-10-21T15:44:48.924Z,6.20
2022-10-21T15:46:12.801Z,6.22
2022-10-21T15:47:36.256Z,6.20
2022-10-21T15:49:00.609Z,6.50
2022-10-21T15:50:25.447Z,6.95
2022-10-21T15:51:50.690Z,5.70
2022-10-21T15:53:14.078Z,6.80
2022-10-21T15:54:39.104Z,6.10
2022-10-21T15:56:02.115Z,6.30
2022-10-21T15:57:25.453Z,6.47
2022-10-21T15:58:47.847Z,5.70
2022-10-21T16:00:17.606Z,6.70
2022-10-21T16:01:40.980Z,6.35
2022-10-21T16:03:04.919Z,5.75
2022-10-21T16:04:28.308Z,6.78
2022-10-21T16:05:51.861Z,6.10
2022-10-21T16:07:23.317Z,6.50
2022-10-21T16:08:47.292Z,6.22
2022-10-21T16:10:22.026Z,5.07
2022-10-21T16:11:54.804Z,5.50
2022-10-21T16:13:22.245Z,6.45
2022-10-21T16:14:45.744Z,6.70
2022-10-21T16:16:16.252Z,6.53
2022-10-21T16:17:46.115Z,6.40
2022-10-21T16:19:09.894Z,6.65
2022-10-21T16:20:35.816Z,6.82
2022-10-21T16:21:59.226Z,6.82
2022-10-21T16:23:22.611Z,7.15
2022-10-21T16:24:45.978Z,6.38
2022-10-21T16:26:16.787Z,6.22
2022-10-21T16:27:51.456Z,6.82
2022-10-21T16:29:20.306Z,6.50
2022-10-21T16:30:43.690Z,7.50
2022-10-21T16:32:07.412Z,6.50
2022-10-21T16:33:30.140Z,6.60
2022-10-21T16:34:53.503Z,6.78
2022-10-21T16:36:17.428Z,7.15
2022-10-21T16:37:41.236Z,7.47
2022-10-21T16:39:04.530Z,6.68
2022-10-21T16:40:31.612Z,6.88
2022-10-21T16:41:56.339Z,7.13
2022-10-21T16:43:20.969Z,7.75
2022-10-21T16:44:45.934Z,7.05
2022-10-21T16:46:20.009Z,7.82
2022-10-21T16:47:56.491Z,11.07
2022-10-21T16:49:23.021Z,8.32
2022-10-21T16:50:47.528Z,8.15
2022-10-21T16:52:12.202Z,7.93
2022-10-21T16:53:35.574Z,7.95
2022-10-21T16:54:58.940Z,6.88
2022-10-21T16:56:21.371Z,8.63
2022-10-21T16:57:46.183Z,8.10
2022-10-21T16:59:09.578Z,7.00
2022-10-21T17:00:32.022Z,8.75
2022-10-21T17:01:55.323Z,8.00
2022-10-21T17:03:18.708Z,7.78
2022-10-21T17:04:42.871Z,9.00
2022-10-21T17:06:06.413Z,9.82
2022-10-21T17:07:32.228Z,7.60
2022-10-21T17:08:57.061Z,8.18
2022-10-21T17:10:20.506Z,8.52
2022-10-21T17:11:44.387Z,8.13
2022-10-21T17:13:09.373Z,7.97
2022-10-21T17:14:33.127Z,7.43
2022-10-21T17:15:56.603Z,8.48
2022-10-21T17:17:21.883Z,8.73
2022-10-21T17:18:45.423Z,8.50
2022-10-21T17:20:09.917Z,7.75
2022-10-21T17:21:34.554Z,7.97
2022-10-21T17:22:58.375Z,8.23
2022-10-21T17:24:21.777Z,8.50
2022-10-21T17:25:45.163Z,8.85
2022-10-21T17:27:08.540Z,8.25
2022-10-21T17:28:35.533Z,8.23
2022-10-21T17:29:58.866Z,8.70
2022-10-21T17:31:24.022Z,9.18
2022-10-21T17:32:47.827Z,9.90
2022-10-21T17:34:21.811Z,8.65
2022-10-21T17:35:45.340Z,9.40
2022-10-21T17:37:07.966Z,8.65
2022-10-21T17:38:31.447Z,8.43
2022-10-21T17:39:53.812Z,8.57
2022-10-21T17:41:19.487Z,10.18
2022-10-21T17:42:43.337Z,8.45
2022-10-21T17:44:08.291Z,8.40
2022-10-21T17:45:31.644Z,7.97
2022-10-21T17:46:55.221Z,7.43
2022-10-21T17:48:18.703Z,7.50
2022-10-21T17:49:42.587Z,9.45
2022-10-21T17:51:06.261Z,8.30
2022-10-21T17:52:29.696Z,8.93
2022-10-21T17:53:54.169Z,9.38
2022-10-21T17:55:17.571Z,8.60
2022-10-21T17:56:41.620Z,8.60
2022-10-21T17:58:05.053Z,8.95
2022-10-21T17:59:31.081Z,10.82
2022-10-21T18:00:56.436Z,10.95
2022-10-21T18:02:19.885Z,10.55
2022-10-21T18:03:43.267Z,8.75
2022-10-21T18:05:08.203Z,8.07
2022-10-21T18:06:31.743Z,9.23
2022-10-21T18:07:55.627Z,8.20
2022-10-21T18:09:19.253Z,8.50
2022-10-21T18:10:42.881Z,8.32
2022-10-21T18:12:09.369Z,8.70
2022-10-21T18:13:32.769Z,8.18
2022-10-21T18:14:57.696Z,7.78
2022-10-21T18:16:22.519Z,8.43
2022-10-21T18:17:45.883Z,7.80
2022-10-21T18:19:09.586Z,7.78
2022-10-21T18:20:36.483Z,8.38
2022-10-21T18:21:59.857Z,8.30
2022-10-21T18:23:23.309Z,6.93
2022-10-21T18:24:46.679Z,8.02
2022-10-21T18:26:13.559Z,7.78
2022-10-21T18:27:40.097Z,8.20
2022-10-21T18:29:05.402Z,8.63
2022-10-21T18:30:30.225Z,9.18
2022-10-21T18:31:52.614Z,7.80
2022-10-21T18:33:15.984Z,8.63
2022-10-21T18:34:39.723Z,8.93
2022-10-21T18:36:09.768Z,8.13
2022-10-21T18:37:34.001Z,8.40
2022-10-21T18:38:58.053Z,8.55
2022-10-21T18:40:21.380Z,8.07
2022-10-21T18:41:44.791Z,8.68
2022-10-21T18:43:08.132Z,8.88
2022-10-21T18:44:31.496Z,8.05
2022-10-21T18:45:56.785Z,8.98
2022-10-21T18:47:20.249Z,8.88
2022-10-21T18:48:44.725Z,9.20
2022-10-21T18:50:10.864Z,9.10
2022-10-21T18:51:34.578Z,8.65
2022-10-21T18:52:59.254Z,8.52
2022-10-21T18:54:22.711Z,8.80
2022-10-21T18:55:46.033Z,8.45
2022-10-21T18:57:12.660Z,8.63
2022-10-21T18:58:37.502Z,8.43
2022-10-21T19:00:00.881Z,8.18
2022-10-21T19:01:26.440Z,8.63
2022-10-21T19:02:49.835Z,7.57
2022-10-21T19:05:42.916Z,8.35
2022-10-21T19:07:06.240Z,7.38
2022-10-21T19:08:28.677Z,7.60
2022-10-21T19:09:52.046Z,8.15
2022-10-21T19:11:14.418Z,8.13
2022-10-21T19:12:37.734Z,8.60
2022-10-21T19:14:01.108Z,9.10
2022-10-21T19:15:24.484Z,7.75
2022-10-21T19:16:49.990Z,7.43
2022-10-21T19:18:13.793Z,7.95
2022-10-21T19:19:39.389Z,7.63
2022-10-21T19:21:03.028Z,8.20